Time;durP1;ratioP1;P1;durP2;ratioP2;P2;SDS_P1;SDS_P2;PMS_P1;PMS_P2;Temp;Humidity;BMP_temperature;BMP_pressure;BME280_temperature;BME280_humidity;BME280_pressure;Samples;Min_cycle;Max_cycle;Signal;HPM_P1;HPM_P2
2023/03/20 00:00:47;;;;;;;10.90;6.35;;;;;;;5.75;68.45;99716.13;6080397;23;19998;-93
2023/03/20 00:03:13;;;;;;;16.73;6.75;;;;;;;5.79;68.58;99728.00;6104965;23;20024;-92
2023/03/20 00:05:38;;;;;;;11.00;6.97;;;;;;;5.58;68.96;99710.63;6080925;23;20002;-92
2023/03/20 00:08:04;;;;;;;11.77;6.07;;;;;;;5.57;69.14;99717.00;6104598;23;20101;-92
2023/03/20 00:10:33;;;;;;;12.63;7.00;;;;;;;5.63;69.23;99721.44;6104349;23;20048;-93
2023/03/20 00:12:59;;;;;;;10.65;5.75;;;;;;;5.55;68.64;99716.41;6104973;23;20002;-93
2023/03/20 00:15:29;;;;;;;10.40;6.28;;;;;;;5.52;69.12;99726.72;6080314;23;20017;-92
2023/03/20 00:17:55;;;;;;;12.63;6.40;;;;;;;5.40;70.16;99708.81;6129125;23;20044;-92
2023/03/20 00:20:20;;;;;;;13.25;6.55;;;;;;;5.35;69.80;99702.50;6080710;23;20345;-92
2023/03/20 00:22:46;;;;;;;11.48;6.55;;;;;;;5.34;70.31;99709.72;6079918;23;20017;-92
2023/03/20 00:25:15;;;;;;;17.02;7.03;;;;;;;5.28;70.13;99697.28;6080201;23;20002;-91
2023/03/20 00:27:42;;;;;;;14.23;7.53;;;;;;;5.20;70.59;99700.25;6104317;23;20445;-93
2023/03/20 00:30:21;;;;;;;12.60;7.03;;;;;;;5.31;70.16;99706.69;6104076;23;20441;-92
2023/03/20 00:32:48;;;;;;;10.02;6.13;;;;;;;5.29;70.41;99698.88;6128732;23;20006;-92
2023/03/20 00:35:22;;;;;;;14.52;7.05;;;;;;;5.25;69.66;99695.06;6103119;23;20029;-92
2023/03/20 00:37:47;;;;;;;15.15;8.20;;;;;;;5.36;70.37;99698.81;6103995;23;19997;-92
2023/03/20 00:40:13;;;;;;;15.35;7.10;;;;;;;5.32;70.27;99693.09;6082168;23;20061;-92
2023/03/20 00:42:39;;;;;;;12.13;7.50;;;;;;;5.25;70.36;99692.41;6105409;23;20013;-93
2023/03/20 00:45:05;;;;;;;14.73;7.55;;;;;;;5.31;69.82;99691.47;6104887;23;20018;-91
2023/03/20 00:47:30;;;;;;;13.95;7.20;;;;;;;5.26;70.05;99683.31;6104841;23;20006;-93
2023/03/20 00:49:56;;;;;;;12.73;6.65;;;;;;;5.24;69.92;99680.06;6080258;23;20084;-92
2023/03/20 00:52:22;;;;;;;11.15;6.22;;;;;;;5.19;69.90;99683.44;6080777;23;19998;-92
2023/03/20 00:54:47;;;;;;;12.43;7.20;;;;;;;5.10;70.05;99674.09;6080689;23;20363;-92
2023/03/20 00:57:19;;;;;;;11.90;6.45;;;;;;;5.20;70.06;99700.25;6080383;23;20002;-93
2023/03/20 01:00:11;;;;;;;9.65;6.45;;;;;;;5.18;69.77;99694.31;6129100;23;20010;-92
2023/03/20 01:02:36;;;;;;;13.02;6.70;;;;;;;5.15;70.30;99686.78;6084815;23;20037;-92
2023/03/20 01:05:04;;;;;;;11.68;7.03;;;;;;;5.06;70.37;99687.09;6080885;23;20002;-92
2023/03/20 01:07:29;;;;;;;12.07;7.25;;;;;;;4.97;70.42;99679.59;6082020;23;20034;-92
2023/03/20 01:09:55;;;;;;;11.50;7.03;;;;;;;4.99;70.20;99673.00;6080250;23;20002;-92
2023/03/20 01:12:21;;;;;;;10.57;6.70;;;;;;;4.97;70.31;99668.94;6080013;23;20005;-92
2023/03/20 01:14:50;;;;;;;11.68;7.13;;;;;;;4.92;70.21;99661.59;6080938;23;20013;-94
2023/03/20 01:17:17;;;;;;;9.25;6.65;;;;;;;4.87;70.79;99664.09;6104683;23;20097;-91
2023/03/20 01:19:43;;;;;;;16.20;7.70;;;;;;;4.93;70.64;99675.75;6104326;23;19998;-91
2023/03/20 01:22:08;;;;;;;12.23;7.70;;;;;;;4.91;70.15;99675.97;6081195;23;20004;-91
2023/03/20 01:24:34;;;;;;;10.77;7.00;;;;;;;4.78;70.79;99658.25;6080717;23;20004;-92
2023/03/20 01:27:02;;;;;;;10.90;7.25;;;;;;;4.77;70.95;99659.31;6079758;23;20009;-91
2023/03/20 01:29:29;;;;;;;11.35;7.32;;;;;;;4.80;70.74;99661.53;6079986;23;19997;-93
2023/03/20 01:31:54;;;;;;;9.77;6.60;;;;;;;4.86;70.68;99673.16;6056725;23;20002;-92
2023/03/20 01:34:20;;;;;;;11.23;6.95;;;;;;;4.86;71.04;99670.50;6080756;23;20009;-93
2023/03/20 01:37:08;;;;;;;12.13;6.70;;;;;;;4.81;71.16;99671.13;6080755;23;19994;-92
2023/03/20 01:39:34;;;;;;;11.05;7.15;;;;;;;4.75;70.86;99668.56;6104885;23;20009;-92
2023/03/20 01:42:00;;;;;;;14.88;7.20;;;;;;;4.76;70.92;99664.88;6104123;23;20157;-92
2023/03/20 01:44:28;;;;;;;9.40;6.38;;;;;;;4.65;70.94;99661.09;6081138;23;20436;-93
2023/03/20 01:46:54;;;;;;;12.30;6.97;;;;;;;4.73;70.87;99665.28;6103993;23;20038;-92
2023/03/20 01:49:19;;;;;;;10.32;6.75;;;;;;;4.76;70.80;99670.19;6080320;23;20049;-93
2023/03/20 01:51:45;;;;;;;15.68;7.82;;;;;;;4.65;70.59;99653.09;6128098;23;20010;-92
2023/03/20 01:54:12;;;;;;;11.82;7.07;;;;;;;4.66;70.74;99665.38;6103346;23;20354;-93
2023/03/20 01:56:45;;;;;;;15.43;7.53;;;;;;;4.74;70.83;99658.94;6104266;23;20002;-92
2023/03/20 01:59:16;;;;;;;11.40;7.43;;;;;;;4.65;71.24;99658.44;6104540;23;20009;-91
2023/03/20 02:01:42;;;;;;;11.60;7.15;;;;;;;4.61;70.46;99650.06;6103316;23;20530;-93
2023/03/20 02:04:08;;;;;;;12.45;7.45;;;;;;;4.69;70.81;99662.28;6078903;23;20005;-92
2023/03/20 02:06:33;;;;;;;9.60;6.80;;;;;;;4.65;71.17;99666.44;6080471;23;20017;-92
2023/03/20 02:08:58;;;;;;;11.75;6.78;;;;;;;4.67;70.19;99667.03;6080235;23;20002;-92
2023/03/20 02:11:24;;;;;;;9.80;6.28;;;;;;;4.57;71.17;99659.53;6080085;23;20002;-92
2023/03/20 02:13:54;;;;;;;10.98;6.90;;;;;;;4.50;70.83;99653.44;6079518;23;20429;-92
2023/03/20 02:16:20;;;;;;;14.10;6.93;;;;;;;4.49;70.62;99646.50;6080618;23;20029;-92
2023/03/20 02:18:47;;;;;;;11.77;7.35;;;;;;;4.52;71.32;99653.22;6082523;23;19998;-92
2023/03/20 02:21:22;;;;;;;13.18;7.10;;;;;;;4.60;70.93;99658.25;6084428;23;20012;-92
2023/03/20 02:24:43;;;;;;;11.23;6.43;;;;;;;4.48;71.06;99668.84;6106920;23;20002;-92
2023/03/20 02:27:14;;;;;;;11.00;6.43;;;;;;;4.30;70.79;99653.66;6076027;23;20045;-92
2023/03/20 02:29:45;;;;;;;9.98;6.45;;;;;;;4.28;71.20;99662.91;6106877;23;20029;-92
2023/03/20 02:32:22;;;;;;;11.40;6.63;;;;;;;4.28;70.53;99666.41;6107825;23;19990;-92
2023/03/20 02:34:54;;;;;;;10.05;6.20;;;;;;;4.20;71.18;99669.34;6107627;23;20072;-93
2023/03/20 02:37:37;;;;;;;10.40;7.10;;;;;;;4.14;71.61;99668.34;6107170;23;20002;-91
2023/03/20 02:40:20;;;;;;;15.18;7.00;;;;;;;4.01;71.69;99661.31;6107001;23;19989;-92
2023/03/20 02:43:03;;;;;;;12.82;7.35;;;;;;;4.04;71.75;99665.38;6086615;23;20224;-93
2023/03/20 02:45:29;;;;;;;20.55;7.28;;;;;;;3.99;72.31;99659.91;6130862;23;20088;-93
2023/03/20 02:47:57;;;;;;;12.45;6.97;;;;;;;3.94;72.25;99665.84;6084184;23;20010;-92
2023/03/20 02:50:32;;;;;;;11.57;7.53;;;;;;;3.92;72.38;99667.94;6107979;23;20021;-91
2023/03/20 02:53:13;;;;;;;15.35;7.32;;;;;;;3.93;72.54;99663.44;6109849;23;20002;-91
2023/03/20 02:55:56;;;;;;;13.43;7.55;;;;;;;3.93;72.06;99661.56;6133131;23;20006;-93
2023/03/20 02:58:25;;;;;;;13.32;6.97;;;;;;;3.81;71.97;99655.31;6133817;23;20080;-91
2023/03/20 03:01:00;;;;;;;13.07;7.80;;;;;;;3.85;72.77;99661.84;6109030;23;19998;-91
2023/03/20 03:03:47;;;;;;;13.20;7.28;;;;;;;3.66;72.25;99649.50;6109098;23;20016;-92
2023/03/20 03:06:30;;;;;;;11.60;6.97;;;;;;;3.76;72.16;99660.50;6112746;23;20025;-91
2023/03/20 03:09:40;;;;;;;11.20;7.32;;;;;;;3.89;72.26;99664.91;6109073;23;20017;-92
2023/03/20 03:12:11;;;;;;;11.73;7.28;;;;;;;3.80;72.32;99653.69;6117631;23;20057;-92
2023/03/20 03:14:43;;;;;;;13.23;7.55;;;;;;;3.76;71.95;99644.50;6109596;23;20006;-92
2023/03/20 03:17:09;;;;;;;13.10;7.55;;;;;;;3.81;71.82;99650.00;6108539;23;20049;-93
2023/03/20 03:19:35;;;;;;;12.45;7.53;;;;;;;3.90;71.83;99659.34;6109709;23;20006;-92
2023/03/20 03:22:00;;;;;;;12.85;7.38;;;;;;;3.83;71.37;99655.91;6109502;23;20100;-92
2023/03/20 03:24:30;;;;;;;11.00;7.38;;;;;;;3.80;71.76;99643.84;6084496;23;20440;-91
2023/03/20 03:26:58;;;;;;;12.88;7.70;;;;;;;3.83;71.60;99650.59;6085274;23;20010;-93
2023/03/20 03:29:23;;;;;;;11.25;7.30;;;;;;;3.78;71.85;99647.78;6108643;23;20010;-93
2023/03/20 03:31:49;;;;;;;12.50;7.15;;;;;;;3.69;72.05;99654.38;6084786;23;20021;-93
2023/03/20 03:34:16;;;;;;;13.18;7.88;;;;;;;3.60;72.14;99652.00;6084243;23;20342;-92
2023/03/20 03:36:47;;;;;;;13.68;8.32;;;;;;;3.65;71.97;99640.69;6108054;23;20038;-92
2023/03/20 03:39:46;;;;;;;11.32;7.03;;;;;;;3.77;71.70;99646.13;6132501;23;20390;-92
2023/03/20 03:42:32;;;;;;;15.55;7.28;;;;;;;3.85;70.65;99635.22;6107618;23;20009;-92
2023/03/20 03:45:42;;;;;;;13.38;6.72;;;;;;;3.84;71.06;99638.91;6108509;23;20001;-92
2023/03/20 03:48:17;;;;;;;11.80;6.45;;;;;;;3.76;71.56;99639.19;6078526;23;20010;-92
2023/03/20 03:50:56;;;;;;;12.65;7.35;;;;;;;3.63;71.79;99635.59;6108579;23;20349;-93
2023/03/20 03:53:24;;;;;;;9.98;6.88;;;;;;;3.64;72.10;99631.06;6059606;23;20016;-93
2023/03/20 03:55:52;;;;;;;11.95;6.50;;;;;;;3.55;72.27;99629.69;6108600;23;20002;-92
2023/03/20 03:58:27;;;;;;;14.40;7.38;;;;;;;3.58;72.54;99639.94;6109224;23;19982;-92
2023/03/20 04:00:53;;;;;;;15.68;7.28;;;;;;;3.49;72.80;99630.59;6110323;23;20018;-92
2023/03/20 04:03:19;;;;;;;17.65;7.70;;;;;;;3.56;72.55;99644.66;6107445;23;19998;-92
2023/03/20 04:05:45;;;;;;;14.50;7.80;;;;;;;3.52;71.39;99644.25;6108034;23;20008;-92
2023/03/20 04:08:11;;;;;;;14.73;7.85;;;;;;;3.48;72.23;99634.25;6108589;23;20345;-94
2023/03/20 04:10:36;;;;;;;13.88;7.10;;;;;;;3.48;72.50;99636.94;6084114;23;20037;-93
2023/03/20 04:13:02;;;;;;;13.20;7.90;;;;;;;3.48;71.89;99628.94;6083392;23;20005;-93
2023/03/20 04:15:27;;;;;;;19.33;8.23;;;;;;;3.44;71.93;99623.22;6084030;23;20022;-92
2023/03/20 04:17:53;;;;;;;13.90;7.85;;;;;;;3.41;72.03;99623.66;6083834;23;20421;-94
2023/03/20 04:20:19;;;;;;;10.75;6.88;;;;;;;3.57;71.49;99648.94;6085137;23;20001;-91
2023/03/20 04:22:44;;;;;;;12.00;6.90;;;;;;;3.55;71.76;99648.34;6109133;23;20422;-94
2023/03/20 04:25:16;;;;;;;12.32;7.75;;;;;;;3.48;71.37;99636.94;6086417;23;20009;-93
2023/03/20 04:27:42;;;;;;;12.05;7.43;;;;;;;3.44;71.45;99647.19;6110443;23;20017;-91
2023/03/20 04:30:08;;;;;;;14.88;7.95;;;;;;;3.40;71.80;99638.84;6085529;23;20031;-93
2023/03/20 04:32:34;;;;;;;10.93;7.47;;;;;;;3.38;72.05;99645.38;6084609;23;20084;-87
2023/03/20 04:34:59;;;;;;;10.73;7.22;;;;;;;3.34;71.91;99631.69;6081878;23;20345;-88
2023/03/20 04:37:25;;;;;;;12.98;7.85;;;;;;;3.39;72.12;99639.84;6080176;23;20341;-86
2023/03/20 04:39:50;;;;;;;16.02;8.05;;;;;;;3.43;71.82;99646.38;6081546;23;20004;-86
2023/03/20 04:42:16;;;;;;;17.08;9.18;;;;;;;3.37;72.17;99641.91;6078913;23;20389;-87
2023/03/20 04:44:41;;;;;;;18.67;8.32;;;;;;;3.45;72.13;99654.16;6077999;23;20002;-86
2023/03/20 04:47:07;;;;;;;12.95;7.32;;;;;;;3.43;71.32;99654.34;6079893;23;20010;-86
2023/03/20 04:49:32;;;;;;;13.48;7.63;;;;;;;3.40;71.54;99651.31;6081316;23;20002;-85
2023/03/20 04:51:57;;;;;;;10.88;7.10;;;;;;;3.39;71.10;99650.50;6081311;23;20025;-86
2023/03/20 04:54:23;;;;;;;13.13;7.03;;;;;;;3.39;71.43;99660.31;6078975;23;20009;-86
2023/03/20 04:56:49;;;;;;;11.38;7.25;;;;;;;3.42;71.19;99659.88;6104939;23;20065;-88
2023/03/20 04:59:14;;;;;;;17.58;7.25;;;;;;;3.42;71.35;99652.75;6078717;23;19998;-86
2023/03/20 05:01:40;;;;;;;15.63;7.75;;;;;;;3.54;71.38;99662.69;6102379;23;20348;-87
2023/03/20 05:04:05;;;;;;;12.98;7.63;;;;;;;3.55;71.65;99656.31;6077975;23;20053;-86
2023/03/20 05:06:31;;;;;;;26.60;7.78;;;;;;;3.65;71.04;99669.97;6079080;23;20009;-86
2023/03/20 05:08:58;;;;;;;58.63;12.27;;;;;;;3.59;71.68;99662.84;6078248;23;20459;-87
2023/03/20 05:11:24;;;;;;;18.00;8.13;;;;;;;3.72;71.46;99672.59;6078255;23;20001;-88
2023/03/20 05:13:50;;;;;;;14.15;7.72;;;;;;;3.79;71.47;99673.38;6102305;23;20448;-89
2023/03/20 05:16:16;;;;;;;19.42;14.13;;;;;;;3.83;70.95;99663.91;6078277;23;20022;-93
2023/03/20 05:18:45;;;;;;;15.55;9.77;;;;;;;4.10;70.39;99677.81;6105964;23;20006;-94
2023/03/20 05:21:10;;;;;;;14.13;8.18;;;;;;;4.08;70.94;99674.56;6080560;23;20021;-93
2023/03/20 05:23:36;;;;;;;18.67;9.23;;;;;;;4.02;70.64;99656.78;6081177;23;20006;-94
2023/03/20 05:26:01;;;;;;;16.08;9.32;;;;;;;4.16;70.30;99679.63;6081077;23;20440;-93
2023/03/20 05:28:27;;;;;;;20.48;8.77;;;;;;;4.16;70.88;99678.81;6112416;23;20162;-93
2023/03/20 05:30:52;;;;;;;17.88;9.43;;;;;;;4.10;70.17;99672.50;6081088;23;20025;-92
2023/03/20 05:33:19;;;;;;;12.15;7.55;;;;;;;3.96;70.69;99668.31;6081525;23;20005;-93
2023/03/20 05:35:45;;;;;;;17.33;8.85;;;;;;;4.16;69.82;99671.63;6107911;23;20002;-95
2023/03/20 05:38:10;;;;;;;13.40;8.25;;;;;;;4.19;70.13;99681.84;6085187;23;20018;-93
2023/03/20 05:40:36;;;;;;;24.95;8.40;;;;;;;4.24;69.57;99674.00;6083652;23;20005;-92
2023/03/20 05:43:01;;;;;;;20.77;9.30;;;;;;;4.34;69.70;99680.69;6083963;23;20013;-92
2023/03/20 05:45:27;;;;;;;16.40;7.65;;;;;;;4.33;70.36;99684.38;6081807;23;20010;-94
2023/03/20 05:47:53;;;;;;;14.60;7.82;;;;;;;4.41;70.38;99650.25;6086353;23;20002;-94
2023/03/20 05:50:19;;;;;;;16.33;7.80;;;;;;;4.63;70.15;99687.97;6082413;23;20072;-94
2023/03/20 05:52:48;;;;;;;13.77;7.18;;;;;;;4.63;70.29;99668.50;6109143;23;20029;-91
2023/03/20 05:55:14;;;;;;;17.88;7.80;;;;;;;4.72;69.99;99669.81;6083283;23;20002;-94
2023/03/20 05:57:40;;;;;;;25.35;7.97;;;;;;;4.77;69.77;99670.00;6060144;23;20005;-93
2023/03/20 06:00:11;;;;;;;28.42;9.23;;;;;;;4.89;70.14;99646.03;6059830;23;20077;-95
2023/03/20 06:02:37;;;;;;;14.27;9.90;;;;;;;5.24;69.21;99664.06;6083115;23;20069;-93
2023/03/20 06:05:03;;;;;;;11.90;7.72;;;;;;;5.26;68.87;99664.63;6081702;23;20001;-93
2023/03/20 06:07:31;;;;;;;21.83;8.20;;;;;;;5.57;68.27;99692.97;6111029;23;20077;-93
2023/03/20 06:09:56;;;;;;;18.17;7.97;;;;;;;5.44;67.88;99648.56;6087115;23;20108;-95
2023/03/20 06:12:25;;;;;;;25.88;9.00;;;;;;;5.56;67.90;99640.59;6085722;23;20342;-93
2023/03/20 06:14:50;;;;;;;20.80;10.45;;;;;;;5.91;67.98;99679.09;6086777;23;20045;-94
2023/03/20 06:17:16;;;;;;;19.75;9.40;;;;;;;5.94;67.52;99657.28;6083034;23;20013;-93
2023/03/20 06:19:41;;;;;;;18.30;8.70;;;;;;;6.41;66.46;99684.03;6088340;23;20002;-94
2023/03/20 06:22:07;;;;;;;20.38;8.60;;;;;;;6.50;66.11;99671.94;6086252;23;20005;-93
2023/03/20 06:24:37;;;;;;;16.98;9.20;;;;;;;6.72;65.43;99671.34;6089081;23;20046;-96
2023/03/20 06:27:03;;;;;;;17.08;9.20;;;;;;;6.92;64.87;99685.13;6114276;23;20058;-94
2023/03/20 06:29:34;;;;;;;19.33;10.15;;;;;;;6.94;64.50;99671.53;6087267;23;20026;-94
2023/03/20 06:31:59;;;;;;;17.92;8.35;;;;;;;7.22;63.93;99663.53;6084513;23;20025;-88
2023/03/20 06:34:26;;;;;;;19.95;8.80;;;;;;;7.44;62.91;99649.44;6084260;23;20050;-87
2023/03/20 06:36:55;;;;;;;13.98;7.47;;;;;;;7.79;62.60;99662.63;6082953;23;20017;-88
2023/03/20 06:39:20;;;;;;;11.73;7.28;;;;;;;7.89;62.10;99651.28;6064045;23;20037;-90
2023/03/20 06:41:46;;;;;;;12.95;7.10;;;;;;;8.22;60.86;99653.13;6084864;23;20009;-86
2023/03/20 06:44:11;;;;;;;27.10;8.05;;;;;;;8.29;60.71;99652.94;6082563;23;20014;-86
2023/03/20 06:46:37;;;;;;;17.83;6.90;;;;;;;8.50;59.98;99646.00;6083673;23;20012;-89
2023/03/20 06:49:02;;;;;;;12.98;7.32;;;;;;;8.59;59.88;99646.38;6080785;23;20012;-88
2023/03/20 06:51:31;;;;;;;12.40;7.57;;;;;;;8.71;59.21;99647.09;6085768;23;20495;-88
2023/03/20 06:53:57;;;;;;;12.38;7.32;;;;;;;8.99;58.85;99669.47;6082327;23;20006;-85
2023/03/20 06:56:22;;;;;;;15.90;6.85;;;;;;;8.78;59.25;99636.16;6083117;23;19998;-88
2023/03/20 06:58:53;;;;;;;14.98;6.00;;;;;;;8.85;58.32;99631.44;6087499;23;19998;-91
2023/03/20 07:01:23;;;;;;;10.95;6.43;;;;;;;9.16;57.85;99664.81;6114519;23;20002;-85
2023/03/20 07:03:52;;;;;;;17.00;6.90;;;;;;;9.26;58.00;99650.69;6091271;23;20005;-88
2023/03/20 07:06:18;;;;;;;19.67;7.05;;;;;;;9.53;57.38;99653.38;6094759;23;20021;-94
2023/03/20 07:08:44;;;;;;;7.35;5.30;;;;;;;9.43;56.73;99632.56;6091568;23;20010;-94
2023/03/20 07:11:09;;;;;;;12.23;6.95;;;;;;;9.69;56.77;99663.22;6117559;23;20429;-95
2023/03/20 07:13:35;;;;;;;8.77;6.28;;;;;;;9.66;56.32;99630.63;6068419;23;20021;-94
2023/03/20 07:16:03;;;;;;;13.77;5.47;;;;;;;9.91;55.78;99646.16;6091681;23;20022;-95
2023/03/20 07:18:29;;;;;;;9.77;5.30;;;;;;;9.96;55.31;99626.56;6099975;23;20029;-95
2023/03/20 07:21:01;;;;;;;8.45;5.40;;;;;;;10.09;55.32;99637.69;6099580;23;20002;-94
2023/03/20 07:23:29;;;;;;;18.27;10.18;;;;;;;10.41;55.41;99661.06;6072280;23;20010;-94
2023/03/20 07:26:09;;;;;;;15.82;7.88;;;;;;;10.58;54.74;99660.88;6073337;23;20002;-96
2023/03/20 07:28:35;;;;;;;8.10;5.53;;;;;;;10.66;54.15;99636.16;6065035;23;20014;-94
2023/03/20 07:31:00;;;;;;;9.55;5.53;;;;;;;10.78;53.49;99648.59;6039089;23;20025;-94
2023/03/20 07:33:26;;;;;;;12.57;5.47;;;;;;;10.79;53.18;99632.19;6038342;23;20205;-96
2023/03/20 07:35:54;;;;;;;16.30;5.60;;;;;;;11.03;52.57;99637.91;6032399;23;20003;-95
2023/03/20 07:38:20;;;;;;;10.57;5.28;;;;;;;11.05;52.64;99638.47;6029706;23;20033;-96
2023/03/20 07:40:49;;;;;;;10.10;4.93;;;;;;;11.21;52.18;99633.13;6054167;23;19998;-96
2023/03/20 07:43:15;;;;;;;13.95;4.72;;;;;;;11.29;52.29;99627.22;6035070;23;20006;-94
2023/03/20 07:45:41;;;;;;;10.23;4.70;;;;;;;11.65;51.44;99643.44;6031266;23;20007;-96
2023/03/20 07:48:09;;;;;;;15.82;5.30;;;;;;;11.84;50.61;99630.22;6042262;23;20007;-96
2023/03/20 07:51:14;;;;;;;17.10;6.97;;;;;;;11.96;50.01;99611.91;6041654;23;20057;-94
2023/03/20 08:04:52;;;;;;;13.25;5.80;;;;;;;13.09;47.74;99608.81;6128252;23;20026;-95
2023/03/20 08:07:20;;;;;;;8.32;5.32;;;;;;;13.08;47.81;99621.53;6121245;23;20055;-95
2023/03/20 08:10:11;;;;;;;15.27;6.43;;;;;;;13.22;47.12;99626.31;6146879;23;19996;-95
2023/03/20 08:12:41;;;;;;;6.53;4.15;;;;;;;13.21;46.87;99632.81;6164229;23;20060;-94
2023/03/20 08:15:10;;;;;;;12.05;4.85;;;;;;;13.56;46.69;99637.22;6142856;23;19998;-95
2023/03/20 08:17:50;;;;;;;7.85;4.88;;;;;;;13.78;46.70;99650.31;6140043;23;20449;-92
2023/03/20 08:20:18;;;;;;;9.43;4.55;;;;;;;13.90;45.94;99626.41;6116024;23;20006;-91
2023/03/20 08:22:48;;;;;;;10.50;3.85;;;;;;;14.14;44.77;99625.63;6091550;23;20057;-94
2023/03/20 08:25:28;;;;;;;8.45;5.25;;;;;;;13.98;44.57;99624.16;6107826;23;20010;-94
2023/03/20 08:27:58;;;;;;;9.15;4.15;;;;;;;14.18;43.69;99634.81;6078882;23;20006;-91
2023/03/20 08:30:26;;;;;;;8.73;3.83;;;;;;;14.39;43.69;99631.88;6105970;23;20002;-94
2023/03/20 08:32:52;;;;;;;6.75;4.07;;;;;;;14.62;43.59;99633.81;6078531;23;20452;-95
2023/03/20 08:35:23;;;;;;;8.88;4.38;;;;;;;14.89;43.21;99641.34;6101422;23;20393;-93
2023/03/20 08:37:52;;;;;;;8.52;4.03;;;;;;;15.07;42.21;99633.56;6104270;23;20006;-96
2023/03/20 08:40:25;;;;;;;13.57;7.70;;;;;;;15.39;42.00;99642.88;6082903;23;20454;-95
2023/03/20 08:42:50;;;;;;;9.20;5.43;;;;;;;15.41;42.01;99624.38;6088184;23;20006;-96
2023/03/20 08:45:17;;;;;;;8.32;4.53;;;;;;;15.62;42.21;99639.25;6081267;23;20007;-93
2023/03/20 08:47:42;;;;;;;10.20;3.80;;;;;;;15.64;41.77;99617.25;6084130;23;20033;-95
2023/03/20 08:50:15;;;;;;;7.93;3.53;;;;;;;15.83;41.49;99619.94;6083727;23;20014;-92
2023/03/20 08:52:45;;;;;;;9.70;6.03;;;;;;;16.10;41.01;99630.91;6133181;23;20002;-94
2023/03/20 08:55:12;;;;;;;8.00;4.25;;;;;;;15.96;40.95;99602.91;6134616;23;20016;-94
2023/03/20 08:57:43;;;;;;;8.48;4.10;;;;;;;16.34;40.91;99638.06;6108009;23;19998;-95
2023/03/20 09:03:14;;;;;;;;;;;;;;;;;;;;;
2023/03/20 09:05:46;;;;;;;6.60;4.10;;;;;;;16.61;39.98;99637.28;6116676;23;20037;-95
2023/03/20 09:08:16;;;;;;;11.10;4.35;;;;;;;16.61;39.73;99604.66;6119999;23;20041;-92
2023/03/20 09:10:46;;;;;;;5.75;3.70;;;;;;;16.79;39.80;99608.38;6047767;23;20010;-94
2023/03/20 09:13:31;;;;;;;5.63;3.95;;;;;;;16.91;39.43;99626.91;6123790;23;20025;-93
2023/03/20 09:15:59;;;;;;;12.38;5.13;;;;;;;17.03;39.01;99613.59;6113073;23;20037;-96
2023/03/20 09:18:25;;;;;;;5.80;3.88;;;;;;;16.99;38.03;99587.31;6118232;23;20064;-96
2023/03/20 09:20:50;;;;;;;5.20;3.38;;;;;;;17.08;38.14;99594.47;6085284;23;20356;-93
2023/03/20 09:23:19;;;;;;;9.45;3.67;;;;;;;17.08;38.13;99604.50;6109125;23;20010;-94
2023/03/20 09:26:00;;;;;;;7.65;4.57;;;;;;;17.01;38.29;99582.38;6109872;23;20062;-94
2023/03/20 09:28:26;;;;;;;9.68;4.28;;;;;;;17.17;38.63;99591.81;6088546;23;20026;-94
2023/03/20 09:31:07;;;;;;;9.07;4.50;;;;;;;17.28;38.29;99576.84;6085725;23;20006;-90
2023/03/20 09:33:34;;;;;;;9.18;4.20;;;;;;;17.51;37.87;99601.34;6085831;23;20009;-95
2023/03/20 09:36:02;;;;;;;7.78;3.80;;;;;;;17.50;38.05;99599.75;6090932;23;20058;-91
2023/03/20 09:38:29;;;;;;;11.40;5.15;;;;;;;17.41;37.52;99568.94;6114496;23;20002;-94
2023/03/20 09:41:22;;;;;;;;;;;;;;;;;;;;;
2023/03/20 09:44:29;;;;;;;5.88;3.65;;;;;;;17.71;38.08;99598.13;6092612;23;20006;-96
2023/03/20 09:47:40;;;;;;;6.80;4.22;;;;;;;17.72;37.57;99574.44;6130089;23;20014;-93
2023/03/20 09:50:30;;;;;;;10.50;5.00;;;;;;;17.97;37.31;99592.88;6164134;23;20040;-96
2023/03/20 09:53:48;;;;;;;5.95;4.13;;;;;;;17.97;36.92;99590.16;6142037;23;19997;-95
2023/03/20 09:56:23;;;;;;;6.00;3.60;;;;;;;17.86;36.84;99583.34;6108336;23;20025;-96
2023/03/20 09:59:32;;;;;;;7.82;4.03;;;;;;;17.72;37.63;99567.09;6150178;23;19997;-96
2023/03/20 10:07:45;;;;;;;10.57;7.18;;;;;;;18.13;35.72;99567.94;6177287;23;20044;-96
2023/03/20 10:14:15;;;;;;;4.90;3.10;;;;;;;17.89;34.22;99562.88;6170463;23;20088;-96
2023/03/20 10:17:02;;;;;;;3.47;2.72;;;;;;;18.05;34.50;99558.59;6144395;23;20033;-96
2023/03/20 10:19:35;;;;;;;4.32;3.20;;;;;;;18.19;35.74;99550.34;6150614;23;19989;-96
2023/03/20 10:22:29;;;;;;;5.32;3.00;;;;;;;18.16;34.81;99553.72;6163154;23;20021;-95
2023/03/20 10:25:32;;;;;;;5.43;2.80;;;;;;;18.16;34.15;99548.25;6176180;23;20033;-96
2023/03/20 10:28:16;;;;;;;8.05;4.68;;;;;;;18.29;34.86;99544.59;6188161;22;20032;-94
2023/03/20 10:31:25;;;;;;;10.70;5.05;;;;;;;18.33;34.90;99547.50;6180776;23;19999;-94
2023/03/20 10:34:29;;;;;;;9.18;4.95;;;;;;;18.21;35.35;99529.03;6205699;23;20005;-95
2023/03/20 10:37:23;;;;;;;9.70;4.32;;;;;;;18.35;35.25;99540.63;6175194;23;20001;-95
2023/03/20 10:40:44;;;;;;;6.55;3.40;;;;;;;18.49;34.64;99535.06;6200526;23;20001;-95
2023/03/20 10:43:33;;;;;;;5.28;3.03;;;;;;;18.60;33.91;99515.66;5999568;23;20056;-96
2023/03/20 10:46:21;;;;;;;5.40;2.97;;;;;;;18.81;33.61;99537.72;5977986;24;20008;-95
2023/03/20 10:49:15;;;;;;;6.70;4.00;;;;;;;18.87;32.85;99511.88;5969888;24;20072;-95
2023/03/20 10:51:48;;;;;;;7.32;4.28;;;;;;;19.03;32.30;99507.53;6060583;23;20006;-94
2023/03/20 10:54:40;;;;;;;5.18;3.85;;;;;;;19.08;32.16;99506.56;6088802;23;20002;-95
2023/03/20 10:57:25;;;;;;;4.60;2.92;;;;;;;19.10;31.77;99507.06;6092050;23;20504;-94
2023/03/20 11:00:03;;;;;;;5.40;3.40;;;;;;;19.20;30.11;99495.81;6086976;23;20084;-93
2023/03/20 11:02:30;;;;;;;5.10;2.78;;;;;;;19.12;31.51;99502.88;6093447;23;19998;-94
2023/03/20 11:04:55;;;;;;;3.67;2.60;;;;;;;19.17;32.10;99507.34;6083893;23;20464;-94
2023/03/20 11:07:37;;;;;;;3.47;2.45;;;;;;;19.34;31.46;99521.00;6083808;23;20062;-93
2023/03/20 11:10:06;;;;;;;3.50;2.30;;;;;;;19.20;31.52;99512.19;6087658;23;20001;-94
2023/03/20 11:12:37;;;;;;;4.32;2.53;;;;;;;19.02;30.94;99475.09;6132967;23;20005;-94
2023/03/20 11:15:04;;;;;;;;;;;;;;;19.32;31.46;99504.16;6127942;23;20058;-94
2023/03/20 11:17:30;;;;;;;4.80;2.95;;;;;;;18.93;31.37;99478.66;6166500;23;20015;-94
2023/03/20 11:20:08;;;;;;;4.13;3.08;;;;;;;19.07;31.76;99474.94;6144148;23;20004;-93
2023/03/20 11:22:33;;;;;;;7.82;2.85;;;;;;;19.16;31.20;99467.56;6170319;23;20033;-94
2023/03/20 11:25:01;;;;;;;4.15;2.33;;;;;;;19.11;30.63;99451.31;6144199;23;20001;-95
2023/03/20 11:27:28;;;;;;;3.40;2.20;;;;;;;19.27;29.24;99457.88;6144413;23;20031;-92
2023/03/20 11:29:54;;;;;;;8.57;3.53;;;;;;;19.48;30.05;99458.00;6143993;23;20012;-92
2023/03/20 11:33:10;;;;;;;;;;;;;;;;;;;;;
2023/03/20 11:35:58;;;;;;;3.92;2.28;;;;;;;19.61;28.72;99437.09;6208071;23;20005;-95
2023/03/20 11:38:28;;;;;;;4.05;2.50;;;;;;;19.79;28.69;99437.84;6152060;23;20040;-95
2023/03/20 11:41:07;;;;;;;27.55;17.30;;;;;;;19.82;28.77;99453.59;6176167;23;20488;-95
2023/03/20 11:44:08;;;;;;;;;;;;;;;;;;;;;
2023/03/20 11:46:55;;;;;;;4.47;2.70;;;;;;;19.92;28.60;99457.84;6169525;23;20448;-93
2023/03/20 11:49:50;;;;;;;5.43;2.42;;;;;;;20.08;26.04;99458.91;6121596;23;20013;-93
2023/03/20 11:52:24;;;;;;;5.30;2.60;;;;;;;19.95;27.73;99454.47;6138575;23;20012;-93
2023/03/20 11:54:58;;;;;;;6.75;2.95;;;;;;;19.79;28.03;99437.84;6140410;23;20005;-94
2023/03/20 11:58:01;;;;;;;5.03;2.33;;;;;;;19.71;27.97;99439.47;6145269;23;19990;-93
2023/03/20 12:00:50;;;;;;;4.43;2.63;;;;;;;19.95;27.71;99446.28;6180187;23;19989;-94
2023/03/20 12:04:02;;;;;;;2.88;2.20;;;;;;;20.01;26.25;99442.25;6154190;23;20006;-95
2023/03/20 12:19:39;;;;;;;4.05;2.17;;;;;;;19.94;27.21;99429.09;6119441;23;20027;-96
2023/03/20 12:22:33;;;;;;;4.25;2.13;;;;;;;19.68;26.85;99423.72;6124940;23;20010;-96
2023/03/20 12:32:56;;;;;;;;;;;;;;;;;;;;;
2023/03/20 12:39:35;;;;;;;;;;;;;;;;;;;;;
2023/03/20 12:45:59;;;;;;;3.72;2.58;;;;;;;19.34;28.76;99394.59;6196246;22;20025;-96
2023/03/20 12:51:53;;;;;;;7.22;3.10;;;;;;;19.35;29.04;99410.66;6170014;22;20021;-96
2023/03/20 12:54:47;;;;;;;6.70;3.00;;;;;;;19.14;28.67;99393.38;5973146;23;20024;-95
2023/03/20 12:57:22;;;;;;;5.55;2.38;;;;;;;19.45;28.35;99404.03;6011884;23;20003;-94
2023/03/20 13:06:57;;;;;;;;;;;;;;;;;;;;;
2023/03/20 13:09:47;;;;;;;3.08;2.15;;;;;;;19.71;29.01;99401.22;6073774;23;20038;-93